Ray S Miller Aaf Information

FAA: RYM - ICAO: KRYM

Ray S Miller Aaf (Airport) Location

State Minnesota
County Morrison
City Camp Ripley
Ray S Miller Aaf (Airport) is 1 mile northwest of Camp Ripley, MN.
Latitude 46-05-23.9220N
Longitude 094-21-35.5100W
Elevation 1,149ft

Ray S Miller Aaf METARs

METAR KRYM 262356Z AUTO 20008KT 10SM FEW110 M06/M09 A2971 RMK AO2 SLP096 60000 T10601087 11050 21133 57014 FZRANO $
Altimeter 29.71"
Temperature -6.0°C (21.2°F)
Wind 200° at 8KT
Clouds few at 11,000ft
Visibility 10.0mi
Time observed: 2022-01-26T23:56:00Z

Ray S Miller Aaf (Airport) Details

Status Operational
Activation N/A
Ownership Military - Army
Usage Private
Chart TWIN CITIES
ATC on-site Yes
Beacon schedule N/A
Beacon color N/A

Ray S Miller Aaf (Airport) Contacts

Owner US ARMY AERONAUTICAL SVCS AGENCY
Owner address N/A, FT BELVOIR, VA 22060
Owner phone N/A
Manager JOHN W. MOORE
Manager address 785 310 AVE, BLUE EARTH, MN 56013
Manager phone 507-236-8241

Ray S Miller Aaf Radio Frequencies

Ray S Miller Aaf (Airport) Radio Frequencies

UNICOM N/A
Common traffic advisory frequency (CTAF) N/A